createdAt,value
2023-01-01T00:00:15.121Z,51.00
2023-01-01T00:02:41.996Z,37.90
2023-01-01T00:05:08.510Z,41.53
2023-01-01T00:07:38.796Z,42.10
2023-01-01T00:10:24.266Z,44.73
2023-01-01T00:12:50.434Z,47.83
2023-01-01T00:15:16.791Z,36.37
2023-01-01T00:17:43.716Z,43.03
2023-01-01T00:20:13.268Z,45.97
2023-01-01T00:22:56.285Z,37.67
2023-01-01T00:25:23.554Z,35.90
2023-01-01T00:27:50.102Z,24.57
2023-01-01T00:30:16.600Z,23.57
2023-01-01T00:32:54.730Z,18.63
2023-01-01T00:35:22.657Z,12.33
2023-01-01T00:37:48.844Z,9.80
2023-01-01T00:40:15.074Z,13.17
2023-01-01T00:42:41.300Z,13.30
2023-01-01T00:45:18.755Z,13.10
2023-01-01T00:47:49.297Z,12.90
2023-01-01T00:50:15.719Z,13.97
2023-01-01T00:52:42.102Z,9.57
2023-01-01T00:55:09.406Z,7.27
2023-01-01T00:57:35.622Z,7.90
2023-01-01T01:00:02.110Z,8.83
2023-01-01T01:02:28.386Z,7.93
2023-01-01T01:04:55.415Z,5.97
2023-01-01T01:07:22.149Z,11.17
2023-01-01T01:09:48.847Z,8.63
2023-01-01T01:12:18.270Z,7.93
2023-01-01T01:14:45.530Z,9.57
2023-01-01T01:17:11.728Z,10.47
2023-01-01T01:19:38.749Z,8.50
2023-01-01T01:22:05.584Z,6.07
2023-01-01T01:24:31.778Z,6.37
2023-01-01T01:26:57.977Z,6.40
2023-01-01T01:29:24.451Z,6.67
2023-01-01T01:31:50.795Z,5.20
2023-01-01T01:34:19.962Z,5.37
2023-01-01T01:36:49.054Z,6.87
2023-01-01T01:39:16.053Z,7.67
2023-01-01T01:41:42.280Z,4.53
2023-01-01T01:44:42.212Z,7.00
2023-01-01T01:47:12.323Z,5.67
2023-01-01T01:49:38.586Z,8.23
2023-01-01T01:52:04.852Z,3.73
2023-01-01T01:54:34.607Z,7.30
2023-01-01T01:57:02.541Z,6.60
2023-01-01T01:59:31.866Z,7.37
2023-01-01T02:01:58.576Z,5.23
2023-01-01T02:04:24.981Z,3.50
2023-01-01T02:06:51.975Z,3.17
2023-01-01T02:09:18.346Z,7.00
2023-01-01T02:11:45.240Z,6.90
2023-01-01T02:14:11.609Z,3.40
2023-01-01T02:16:42.959Z,1.67
2023-01-01T02:19:15.273Z,4.27
2023-01-01T02:21:52.877Z,4.57
2023-01-01T02:24:29.665Z,3.00
2023-01-01T02:26:58.943Z,2.97
2023-01-01T02:29:30.434Z,4.90
2023-01-01T02:32:01.642Z,3.03
2023-01-01T02:34:31.778Z,2.10
2023-01-01T02:36:59.329Z,11.23
2023-01-01T02:39:29.431Z,3.33
2023-01-01T02:42:00.505Z,3.63
2023-01-01T02:44:33.183Z,3.70
2023-01-01T02:47:07.065Z,5.97
2023-01-01T02:49:36.246Z,6.93
2023-01-01T02:52:05.618Z,2.17
2023-01-01T02:54:37.154Z,3.53
2023-01-01T02:57:07.854Z,3.50
2023-01-01T03:00:01.497Z,2.27
2023-01-01T03:02:37.448Z,7.40
2023-01-01T03:05:08.754Z,2.70
2023-01-01T03:07:41.383Z,2.13
2023-01-01T03:10:14.373Z,1.80
2023-01-01T03:12:43.966Z,1.90
2023-01-01T03:15:19.166Z,7.57
2023-01-01T03:17:49.312Z,5.37
2023-01-01T03:20:19.708Z,5.60
2023-01-01T03:22:48.193Z,5.40
2023-01-01T03:25:16.856Z,7.13
2023-01-01T03:27:46.742Z,5.67
2023-01-01T03:30:15.057Z,4.27
2023-01-01T03:33:02.832Z,4.43
2023-01-01T03:35:35.534Z,2.17
2023-01-01T03:38:04.079Z,6.47
2023-01-01T03:40:31.749Z,5.93
2023-01-01T03:43:09.041Z,3.70
2023-01-01T03:45:38.936Z,2.80
2023-01-01T03:48:05.749Z,6.13
2023-01-01T03:50:40.830Z,3.10
2023-01-01T03:53:10.145Z,2.87
2023-01-01T03:55:39.477Z,5.70
2023-01-01T03:58:11.076Z,9.20
2023-01-01T04:00:42.862Z,3.63
2023-01-01T04:03:15.351Z,3.43
2023-01-01T04:05:42.373Z,2.53
2023-01-01T04:08:09.556Z,6.33
2023-01-01T04:10:37.800Z,4.73
2023-01-01T04:13:05.672Z,2.37
2023-01-01T04:15:33.130Z,2.70
2023-01-01T04:17:59.999Z,10.37
2023-01-01T04:20:26.351Z,3.50
2023-01-01T04:22:55.476Z,4.20
2023-01-01T04:25:21.736Z,11.93
2023-01-01T04:27:48.036Z,4.87
2023-01-01T04:30:14.805Z,6.43
2023-01-01T04:32:41.137Z,1.70
2023-01-01T04:35:11.430Z,4.33
2023-01-01T04:37:37.756Z,3.27
2023-01-01T04:40:05.035Z,6.37
2023-01-01T04:42:31.265Z,2.53
2023-01-01T04:44:57.591Z,2.17
2023-01-01T04:47:26.046Z,2.27
2023-01-01T04:49:52.279Z,3.50
2023-01-01T04:52:19.112Z,5.67
2023-01-01T04:54:45.601Z,5.80
2023-01-01T04:57:12.077Z,3.53
2023-01-01T04:59:38.280Z,4.87
2023-01-01T05:02:04.567Z,5.23
2023-01-01T05:04:30.858Z,9.63
2023-01-01T05:06:57.036Z,4.63
2023-01-01T05:09:23.863Z,7.07
2023-01-01T05:11:50.054Z,3.83
2023-01-01T05:14:16.363Z,4.53
2023-01-01T05:16:42.756Z,4.03
2023-01-01T05:19:13.813Z,6.53
2023-01-01T05:21:40.335Z,2.83
2023-01-01T05:24:08.823Z,5.30
2023-01-01T05:26:37.335Z,5.30
2023-01-01T05:29:04.792Z,3.57
2023-01-01T05:31:34.511Z,3.67
2023-01-01T05:36:29.202Z,4.83
2023-01-01T05:38:55.933Z,1.93
2023-01-01T05:41:22.349Z,7.73
2023-01-01T05:43:49.823Z,3.43
2023-01-01T05:46:17.842Z,6.03
2023-01-01T05:48:44.490Z,3.10
2023-01-01T05:51:14.844Z,6.77
2023-01-01T05:53:41.350Z,2.30
2023-01-01T05:56:08.060Z,6.93
2023-01-01T05:58:35.172Z,4.53
2023-01-01T06:01:06.523Z,2.33
2023-01-01T06:03:32.769Z,4.13
2023-01-01T06:06:03.137Z,2.67
2023-01-01T06:08:29.365Z,8.13
2023-01-01T06:10:58.233Z,4.53
2023-01-01T06:13:24.627Z,2.27
2023-01-01T06:15:53.512Z,8.73
2023-01-01T06:18:20.433Z,11.83
2023-01-01T06:20:46.664Z,8.47
2023-01-01T06:23:12.879Z,3.10
2023-01-01T06:25:39.102Z,7.13
2023-01-01T06:28:05.362Z,6.73
2023-01-01T06:30:33.601Z,5.60
2023-01-01T06:32:59.909Z,9.73
2023-01-01T06:35:27.423Z,4.43
2023-01-01T06:37:53.658Z,7.20
2023-01-01T06:40:20.096Z,4.70
2023-01-01T06:42:46.312Z,9.40
2023-01-01T06:45:12.656Z,6.43
2023-01-01T06:47:39.256Z,4.27
2023-01-01T06:50:06.514Z,8.13
2023-01-01T06:52:33.379Z,1.97
2023-01-01T06:54:59.555Z,9.30
2023-01-01T06:57:25.752Z,3.40
2023-01-01T06:59:52.009Z,4.73
2023-01-01T07:02:18.339Z,4.30
2023-01-01T07:04:44.680Z,4.07
2023-01-01T07:07:10.928Z,9.30
2023-01-01T07:09:37.693Z,4.57
2023-01-01T07:12:04.376Z,4.30
2023-01-01T07:14:30.628Z,7.80
2023-01-01T07:16:56.859Z,6.77
2023-01-01T07:19:23.114Z,4.60
2023-01-01T07:21:52.193Z,4.80
2023-01-01T07:24:18.560Z,5.50
2023-01-01T07:26:45.447Z,6.20
2023-01-01T07:29:12.400Z,4.23
2023-01-01T07:31:40.268Z,10.60
2023-01-01T07:34:07.300Z,7.07
2023-01-01T07:36:33.957Z,5.30
2023-01-01T07:39:00.264Z,6.40
2023-01-01T07:41:26.723Z,4.53
2023-01-01T07:43:53.583Z,11.00
2023-01-01T07:46:23.978Z,5.03
2023-01-01T07:48:50.314Z,3.87
2023-01-01T07:51:16.568Z,4.57
2023-01-01T07:53:42.766Z,9.20
2023-01-01T07:56:09.084Z,5.70
2023-01-01T07:58:38.551Z,6.93
2023-01-01T08:01:05.560Z,3.33
2023-01-01T08:03:32.023Z,8.03
2023-01-01T08:05:58.264Z,4.57
2023-01-01T08:08:24.505Z,5.20
2023-01-01T08:10:50.722Z,7.07
2023-01-01T08:13:17.046Z,6.37
2023-01-01T08:15:43.375Z,2.13
2023-01-01T08:18:10.353Z,6.17
2023-01-01T08:20:36.570Z,5.10
2023-01-01T08:23:07.111Z,7.00
2023-01-01T08:25:34.092Z,8.97
2023-01-01T08:28:00.345Z,8.07
2023-01-01T08:30:26.660Z,4.87
2023-01-01T08:32:52.940Z,11.80
2023-01-01T08:35:20.201Z,7.37
2023-01-01T08:37:46.639Z,4.17
2023-01-01T08:40:13.178Z,4.60
2023-01-01T08:42:39.637Z,8.67
2023-01-01T08:45:07.385Z,10.33
2023-01-01T08:47:34.210Z,7.03
2023-01-01T08:50:00.524Z,7.10
2023-01-01T08:52:27.393Z,5.67
2023-01-01T08:54:53.658Z,8.57
2023-01-01T08:57:20.327Z,7.83
2023-01-01T08:59:46.591Z,5.33
2023-01-01T09:02:13.056Z,5.13
2023-01-01T09:04:39.423Z,5.07
2023-01-01T09:07:05.846Z,8.93
2023-01-01T09:09:32.877Z,2.83
2023-01-01T09:12:03.334Z,7.43
2023-01-01T09:14:29.907Z,5.73
2023-01-01T09:16:56.233Z,13.80
2023-01-01T09:19:22.591Z,9.23
2023-01-01T09:21:48.833Z,6.10
2023-01-01T09:24:15.593Z,9.77
2023-01-01T09:26:42.809Z,8.50
2023-01-01T09:29:09.049Z,5.13
2023-01-01T09:31:35.287Z,7.43
2023-01-01T09:34:01.596Z,4.60
2023-01-01T09:36:29.391Z,7.33
2023-01-01T09:38:56.584Z,2.57
2023-01-01T09:41:30.429Z,5.47
2023-01-01T09:44:03.428Z,5.73
2023-01-01T09:46:32.014Z,6.63
2023-01-01T09:48:59.687Z,7.27
2023-01-01T09:51:28.013Z,7.77
2023-01-01T09:53:58.207Z,4.67
2023-01-01T09:56:26.704Z,4.60
2023-01-01T09:58:55.363Z,5.63
2023-01-01T10:01:32.661Z,6.27
2023-01-01T10:04:04.180Z,5.17
2023-01-01T10:06:32.215Z,7.17
2023-01-01T10:09:09.213Z,4.27
2023-01-01T10:11:43.018Z,6.30
2023-01-01T10:14:17.198Z,8.43
2023-01-01T10:16:46.251Z,6.03
2023-01-01T10:19:21.660Z,9.17
2023-01-01T10:21:49.035Z,6.87
2023-01-01T10:24:30.728Z,4.23
2023-01-01T10:26:57.726Z,8.97
2023-01-01T10:29:29.289Z,3.97
2023-01-01T10:31:56.487Z,7.47
2023-01-01T10:34:25.255Z,5.17
2023-01-01T10:36:54.083Z,4.13
2023-01-01T10:39:20.597Z,5.03
2023-01-01T10:41:47.573Z,5.90
2023-01-01T10:44:15.840Z,5.90
2023-01-01T10:46:46.532Z,4.97
2023-01-01T10:49:15.275Z,5.13
2023-01-01T10:51:43.548Z,4.30
2023-01-01T10:54:31.898Z,6.47
2023-01-01T10:56:58.469Z,9.27
2023-01-01T10:59:36.159Z,4.67
2023-01-01T11:02:17.268Z,9.20
2023-01-01T11:04:44.435Z,4.60
2023-01-01T11:07:18.384Z,5.70
2023-01-01T11:10:02.573Z,6.97
2023-01-01T11:13:03.565Z,8.37
2023-01-01T11:15:22.191Z,3.00
2023-01-01T11:17:48.512Z,4.67
2023-01-01T11:20:18.804Z,7.87
2023-01-01T11:22:46.523Z,5.97
2023-01-01T11:25:19.321Z,9.67
2023-01-01T11:27:46.007Z,7.63
2023-01-01T11:30:24.526Z,4.17
2023-01-01T11:32:55.827Z,5.80
2023-01-01T11:35:24.319Z,4.03
2023-01-01T11:37:51.167Z,5.63
2023-01-01T11:40:19.793Z,11.27
2023-01-01T11:42:49.170Z,8.70
2023-01-01T11:45:25.878Z,3.37
2023-01-01T11:47:55.275Z,5.40
2023-01-01T11:50:26.956Z,6.77
2023-01-01T11:52:54.270Z,11.33
2023-01-01T11:55:35.571Z,8.43
2023-01-01T11:58:19.586Z,4.30
2023-01-01T12:00:47.437Z,7.37
2023-01-01T12:03:22.064Z,7.07
2023-01-01T12:05:50.865Z,4.50
2023-01-01T12:08:22.888Z,6.40
2023-01-01T12:10:52.590Z,8.50
2023-01-01T12:13:22.191Z,9.73
2023-01-01T12:15:52.165Z,6.20
2023-01-01T12:18:22.139Z,6.87
2023-01-01T12:20:52.617Z,6.97
2023-01-01T12:23:19.501Z,5.47
2023-01-01T12:25:50.549Z,12.33
2023-01-01T12:28:24.920Z,3.43
2023-01-01T12:30:56.641Z,7.07
2023-01-01T12:33:42.603Z,4.90
2023-01-01T12:36:17.530Z,7.27
2023-01-01T12:39:14.291Z,10.07
2023-01-01T12:41:44.413Z,6.20
2023-01-01T12:44:16.679Z,6.30
2023-01-01T12:46:48.313Z,9.13
2023-01-01T12:49:35.406Z,6.37
2023-01-01T12:52:12.785Z,4.97
2023-01-01T12:55:05.467Z,6.07
2023-01-01T12:57:33.662Z,5.67
2023-01-01T13:00:01.985Z,8.53
2023-01-01T13:02:30.093Z,7.47
2023-01-01T13:04:59.851Z,7.13
2023-01-01T13:07:30.565Z,5.77
2023-01-01T13:09:59.551Z,4.60
2023-01-01T13:12:26.890Z,10.27
2023-01-01T13:14:53.073Z,7.50
2023-01-01T13:17:20.488Z,12.33
2023-01-01T13:19:47.727Z,9.77
2023-01-01T13:22:41.072Z,9.60
2023-01-01T13:25:19.601Z,3.57
2023-01-01T13:28:10.607Z,7.43
2023-01-01T13:30:50.091Z,7.47
2023-01-01T13:33:25.884Z,6.57
2023-01-01T13:36:30.093Z,8.80
2023-01-01T13:38:57.760Z,9.23
2023-01-01T13:41:34.684Z,9.33
2023-01-01T13:44:22.557Z,7.93
2023-01-01T13:47:01.366Z,5.10
2023-01-01T13:49:35.947Z,7.73
2023-01-01T13:52:18.727Z,8.80
2023-01-01T13:55:28.087Z,9.07
2023-01-01T13:58:21.060Z,5.97
2023-01-01T14:01:17.034Z,12.60
2023-01-01T14:03:46.924Z,9.00
2023-01-01T14:06:16.066Z,11.10
2023-01-01T14:08:42.241Z,5.97
2023-01-01T14:11:18.860Z,7.63
2023-01-01T14:13:46.524Z,9.93
2023-01-01T14:16:15.076Z,6.27
2023-01-01T14:18:43.839Z,14.40
2023-01-01T14:21:11.622Z,9.83
2023-01-01T14:23:40.313Z,7.50
2023-01-01T14:26:09.097Z,7.13
2023-01-01T14:28:36.358Z,5.93
2023-01-01T14:31:10.811Z,4.60
2023-01-01T14:33:38.343Z,8.20
2023-01-01T14:36:06.571Z,12.07
2023-01-01T14:38:34.824Z,15.47
2023-01-01T14:41:13.675Z,12.50
2023-01-01T14:43:42.150Z,9.10
2023-01-01T14:46:14.398Z,10.07
2023-01-01T14:48:43.198Z,7.30
2023-01-01T14:51:12.836Z,6.67
2023-01-01T14:53:40.260Z,5.63
2023-01-01T14:56:07.232Z,5.67
2023-01-01T14:58:34.865Z,4.33
2023-01-01T15:01:15.118Z,3.13
2023-01-01T15:03:41.413Z,4.07
2023-01-01T15:06:17.219Z,7.20
2023-01-01T15:08:48.568Z,5.87
2023-01-01T15:11:14.781Z,6.43
2023-01-01T15:13:55.080Z,8.03
2023-01-01T15:16:22.022Z,4.80
2023-01-01T15:18:50.227Z,9.30
2023-01-01T15:21:18.268Z,14.27
2023-01-01T15:23:51.697Z,11.53
2023-01-01T15:26:26.219Z,10.37
2023-01-01T15:28:52.587Z,13.57
2023-01-01T15:31:18.913Z,86.33
2023-01-01T15:33:47.252Z,13.93
2023-01-01T15:36:14.626Z,12.10
2023-01-01T15:38:45.660Z,6.17
2023-01-01T15:41:23.316Z,11.20
2023-01-01T15:43:49.521Z,9.37
2023-01-01T15:46:19.381Z,5.93
2023-01-01T15:48:48.911Z,3.63
2023-01-01T15:51:16.752Z,7.17
2023-01-01T15:53:49.122Z,4.73
2023-01-01T15:56:16.596Z,6.00
2023-01-01T15:58:48.058Z,4.30
2023-01-01T16:01:19.451Z,5.00
2023-01-01T16:03:47.302Z,7.70
2023-01-01T16:06:15.527Z,6.30
2023-01-01T16:08:41.709Z,6.80
2023-01-01T16:11:08.023Z,2.37
2023-01-01T16:13:34.804Z,7.30
2023-01-01T16:16:02.529Z,5.10
2023-01-01T16:18:29.949Z,2.70
2023-01-01T16:20:57.156Z,5.17
2023-01-01T16:23:23.611Z,5.93
2023-01-01T16:25:49.826Z,10.80
2023-01-01T16:28:16.005Z,9.97
2023-01-01T16:30:42.506Z,6.60
2023-01-01T16:33:13.816Z,7.27
2023-01-01T16:35:40.108Z,1.87
2023-01-01T16:38:06.924Z,4.73
2023-01-01T16:40:37.679Z,4.93
2023-01-01T16:43:08.698Z,5.93
2023-01-01T16:45:35.211Z,3.60
2023-01-01T16:48:01.511Z,7.60
2023-01-01T16:50:27.681Z,6.23
2023-01-01T16:52:53.970Z,6.87
2023-01-01T16:55:21.170Z,6.07
2023-01-01T16:57:47.562Z,4.50
2023-01-01T17:00:14.519Z,9.93
2023-01-01T17:02:40.970Z,6.20
2023-01-01T17:05:08.370Z,7.47
2023-01-01T17:07:34.645Z,9.10
2023-01-01T17:10:01.694Z,9.60
2023-01-01T17:12:28.749Z,8.57
2023-01-01T17:14:55.088Z,6.77
2023-01-01T17:17:21.643Z,5.70
2023-01-01T17:19:49.870Z,8.73
2023-01-01T17:22:16.097Z,7.03
2023-01-01T17:24:42.322Z,5.90
2023-01-01T17:27:09.628Z,12.87
2023-01-01T17:29:36.499Z,9.87
2023-01-01T17:32:02.844Z,5.57
2023-01-01T17:34:29.052Z,10.67
2023-01-01T17:36:55.303Z,6.30
2023-01-01T17:39:21.539Z,9.50
2023-01-01T17:41:48.543Z,11.40
2023-01-01T17:44:14.761Z,9.53
2023-01-01T17:46:43.326Z,5.23
2023-01-01T17:49:11.938Z,8.10
2023-01-01T17:51:38.604Z,9.33
2023-01-01T17:54:06.299Z,6.07
2023-01-01T17:56:32.650Z,5.87
2023-01-01T17:58:59.003Z,6.60
2023-01-01T18:01:29.783Z,7.73
2023-01-01T18:03:58.527Z,6.10
2023-01-01T18:06:25.151Z,11.07
2023-01-01T18:08:54.588Z,8.40
2023-01-01T18:11:20.964Z,9.60
2023-01-01T18:13:47.587Z,10.93
2023-01-01T18:16:15.291Z,6.60
2023-01-01T18:18:42.331Z,9.53
2023-01-01T18:21:11.516Z,11.00
2023-01-01T18:23:39.981Z,10.63
2023-01-01T18:26:08.031Z,12.73
2023-01-01T18:28:34.738Z,10.23
2023-01-01T18:31:04.408Z,9.70
2023-01-01T18:33:30.682Z,11.10
2023-01-01T18:35:58.902Z,11.30
2023-01-01T18:38:25.819Z,9.67
2023-01-01T18:41:00.437Z,9.63
2023-01-01T18:43:26.624Z,10.87
2023-01-01T18:45:53.369Z,12.07
2023-01-01T18:48:21.195Z,12.80
2023-01-01T18:50:47.446Z,14.23
2023-01-01T18:53:19.145Z,16.00
2023-01-01T18:55:46.502Z,11.17
2023-01-01T18:58:16.515Z,14.43
2023-01-01T19:00:43.282Z,11.83
2023-01-01T19:03:13.805Z,12.83
2023-01-01T19:05:40.630Z,11.27
2023-01-01T19:08:12.557Z,14.27
2023-01-01T19:10:40.464Z,12.03
2023-01-01T19:13:16.301Z,11.80
2023-01-01T19:15:44.842Z,19.97
2023-01-01T19:18:21.350Z,10.70
2023-01-01T19:20:50.056Z,13.73
2023-01-01T19:23:19.378Z,16.47
2023-01-01T19:25:46.119Z,13.10
2023-01-01T19:28:31.113Z,17.17
2023-01-01T19:30:58.459Z,13.27
2023-01-01T19:33:25.348Z,10.27
2023-01-01T19:35:52.105Z,11.60
2023-01-01T19:38:19.303Z,15.60
2023-01-01T19:40:45.635Z,12.10
2023-01-01T19:43:12.125Z,10.20
2023-01-01T19:45:39.739Z,8.20
2023-01-01T19:48:07.148Z,15.77
2023-01-01T19:50:34.028Z,10.83
2023-01-01T19:53:00.875Z,16.43
2023-01-01T19:55:27.355Z,11.80
2023-01-01T19:57:54.197Z,12.13
2023-01-01T20:00:20.973Z,14.33
2023-01-01T20:02:49.014Z,13.63
2023-01-01T20:05:15.950Z,12.07
2023-01-01T20:07:43.071Z,10.83
2023-01-01T20:10:10.383Z,10.33
2023-01-01T20:12:37.496Z,13.13
2023-01-01T20:15:05.098Z,15.13
2023-01-01T20:17:31.718Z,12.27
2023-01-01T20:19:58.936Z,10.20
2023-01-01T20:22:25.966Z,9.33
2023-01-01T20:24:52.613Z,9.40
2023-01-01T20:27:23.788Z,11.83
2023-01-01T20:29:50.149Z,10.10
2023-01-01T20:32:16.834Z,9.20
2023-01-01T20:34:43.561Z,12.57
2023-01-01T20:37:28.560Z,15.87
2023-01-01T20:39:54.882Z,9.07
2023-01-01T20:42:21.202Z,19.43
2023-01-01T20:44:47.443Z,13.30
2023-01-01T20:47:14.605Z,10.27
2023-01-01T20:49:42.060Z,10.93
2023-01-01T20:52:08.623Z,9.17
2023-01-01T20:54:35.587Z,12.83
2023-01-01T20:57:01.742Z,8.90
2023-01-01T20:59:36.995Z,13.73
2023-01-01T21:02:04.443Z,9.43
2023-01-01T21:04:31.061Z,12.53
2023-01-01T21:06:57.346Z,11.43
2023-01-01T21:09:23.591Z,11.50
2023-01-01T21:11:50.569Z,9.33
2023-01-01T21:14:17.744Z,11.57
2023-01-01T21:16:44.248Z,14.67
2023-01-01T21:19:10.584Z,14.80
2023-01-01T21:21:42.571Z,13.50
2023-01-01T21:24:15.146Z,12.47
2023-01-01T21:26:41.428Z,14.37
2023-01-01T21:29:13.696Z,9.60
2023-01-01T21:31:39.872Z,9.27
2023-01-01T21:34:18.180Z,6.93
2023-01-01T21:36:44.427Z,15.93
2023-01-01T21:39:11.604Z,12.87
2023-01-01T21:41:38.017Z,14.23
2023-01-01T21:44:09.881Z,15.93
2023-01-01T21:46:38.774Z,9.20
2023-01-01T21:49:13.381Z,10.20
2023-01-01T21:51:41.559Z,16.63
2023-01-01T21:54:26.185Z,17.87
2023-01-01T21:56:57.823Z,9.90
2023-01-01T21:59:32.151Z,16.00
2023-01-01T22:02:28.017Z,9.13
2023-01-01T22:04:54.599Z,11.03
2023-01-01T22:07:56.561Z,16.87
2023-01-01T22:10:15.308Z,12.97
2023-01-01T22:12:41.728Z,7.40
2023-01-01T22:15:28.186Z,10.23
2023-01-01T22:17:55.735Z,14.30
2023-01-01T22:20:23.069Z,12.13
2023-01-01T22:22:49.379Z,7.47
2023-01-01T22:25:24.108Z,11.80
2023-01-01T22:27:50.537Z,12.17
2023-01-01T22:30:35.989Z,15.50
2023-01-01T22:33:02.863Z,6.97
2023-01-01T22:35:30.653Z,10.27
2023-01-01T22:37:58.026Z,9.23
2023-01-01T22:40:28.270Z,10.53
2023-01-01T22:42:54.862Z,9.60
2023-01-01T22:45:21.173Z,12.93
2023-01-01T22:47:48.333Z,12.30
2023-01-01T22:50:22.278Z,10.70
2023-01-01T22:52:48.569Z,13.63
2023-01-01T22:55:15.043Z,11.73
2023-01-01T22:57:41.320Z,7.77
2023-01-01T23:00:08.638Z,15.90
2023-01-01T23:02:34.975Z,8.70
2023-01-01T23:05:02.011Z,13.83
2023-01-01T23:07:28.496Z,16.07
2023-01-01T23:09:55.146Z,14.47
2023-01-01T23:12:21.422Z,9.27
2023-01-01T23:15:06.110Z,7.57
2023-01-01T23:17:32.330Z,15.37
2023-01-01T23:19:58.806Z,13.57
2023-01-01T23:22:28.693Z,11.40
2023-01-01T23:24:55.530Z,15.23
2023-01-01T23:27:22.257Z,11.10
2023-01-01T23:29:51.043Z,9.53
2023-01-01T23:32:17.526Z,11.17
2023-01-01T23:34:43.915Z,11.10
2023-01-01T23:37:10.847Z,8.67
2023-01-01T23:39:37.727Z,14.40
2023-01-01T23:42:04.201Z,10.40
2023-01-01T23:44:30.459Z,7.93
2023-01-01T23:46:58.220Z,8.00
2023-01-01T23:49:24.469Z,11.90
2023-01-01T23:51:50.773Z,6.50
2023-01-01T23:54:17.032Z,11.13
2023-01-01T23:56:43.867Z,11.27
2023-01-01T23:59:11.164Z,10.40
